Time;durP1;ratioP1;P1;durP2;ratioP2;P2;SDS_P1;SDS_P2;PMS_P1;PMS_P2;Temp;Humidity;BMP_temperature;BMP_pressure;BME280_temperature;BME280_humidity;BME280_pressure;Samples;Min_cycle;Max_cycle;Signal;HPM_P1;HPM_P2
2023/06/18 00:00:13;;;;;;;4.50;4.00;;;;;;;18.38;100.00;99302.38;106245;1254;74234;-63
2023/06/18 00:02:41;;;;;;;6.20;5.60;;;;;;;18.38;100.00;99301.52;106257;1257;66779;-65
2023/06/18 00:05:08;;;;;;;3.90;3.40;;;;;;;18.37;100.00;99300.65;106247;1253;72458;-63
2023/06/18 00:07:35;;;;;;;5.60;5.10;;;;;;;18.35;100.00;99298.48;106229;1260;60764;-64
2023/06/18 00:10:04;;;;;;;4.20;4.00;;;;;;;18.32;100.00;99302.04;106244;1255;61529;-65
2023/06/18 00:12:31;;;;;;;4.30;4.00;;;;;;;18.30;100.00;99299.86;107006;1259;75918;-67
2023/06/18 00:14:58;;;;;;;5.60;4.80;;;;;;;18.30;100.00;99292.60;106261;1259;66754;-64
2023/06/18 00:17:26;;;;;;;6.50;5.90;;;;;;;18.33;100.00;99292.55;106279;1258;73148;-64
2023/06/18 00:19:53;;;;;;;6.00;5.50;;;;;;;18.35;100.00;99293.08;106164;1255;61670;-66
2023/06/18 00:22:21;;;;;;;6.50;6.00;;;;;;;18.35;100.00;99291.98;106238;1253;60938;-68
2023/06/18 00:24:49;;;;;;;8.90;6.10;;;;;;;18.35;100.00;99292.68;106479;1260;71992;-64
2023/06/18 00:27:16;;;;;;;10.40;7.10;;;;;;;18.38;100.00;99290.44;106241;1258;66943;-64
2023/06/18 00:29:46;;;;;;;8.40;7.70;;;;;;;18.39;100.00;99290.16;106628;1255;71380;-64
2023/06/18 00:32:14;;;;;;;11.10;6.00;;;;;;;18.38;100.00;99297.99;106618;1258;60543;-64
2023/06/18 00:34:42;;;;;;;8.20;7.50;;;;;;;18.40;100.00;99298.77;106301;1254;60620;-67
2023/06/18 00:37:10;;;;;;;6.90;5.00;;;;;;;18.42;100.00;99300.58;106312;1258;73907;-64
2023/06/18 00:39:38;;;;;;;6.30;5.90;;;;;;;18.44;100.00;99306.00;106563;1256;66612;-66
2023/06/18 00:42:07;;;;;;;6.20;5.60;;;;;;;18.47;100.00;99302.13;106356;1261;74988;-64
2023/06/18 00:44:39;;;;;;;9.30;7.00;;;;;;;18.48;100.00;99298.74;106509;1256;64646;-66
2023/06/18 00:47:13;;;;;;;7.20;6.80;;;;;;;18.47;100.00;99300.88;106430;1256;60908;-64
2023/06/18 00:49:44;;;;;;;8.90;6.50;;;;;;;18.44;100.00;99300.92;106408;1259;73170;-66
2023/06/18 00:52:14;;;;;;;7.30;6.80;;;;;;;18.45;100.00;99302.13;105559;1261;67292;-65
2023/06/18 00:54:44;;;;;;;17.40;12.80;;;;;;;18.47;100.00;99298.13;105133;1258;71525;-64
2023/06/18 00:57:17;;;;;;;14.90;12.70;;;;;;;18.51;100.00;99303.25;105655;1258;62263;-63
2023/06/18 00:59:46;;;;;;;12.50;11.30;;;;;;;18.51;100.00;99303.41;104995;1254;60507;-67
2023/06/18 01:02:23;;;;;;;9.80;9.10;;;;;;;18.52;100.00;99308.59;105196;1261;74286;-63
2023/06/18 01:04:54;;;;;;;11.20;8.50;;;;;;;18.53;100.00;99305.48;105264;1258;66761;-63
2023/06/18 01:07:22;;;;;;;8.60;7.90;;;;;;;18.54;100.00;99303.90;105183;1255;72490;-65
2023/06/18 01:09:56;;;;;;;8.60;6.40;;;;;;;18.55;100.00;99308.50;104728;1262;60563;-64
2023/06/18 01:12:30;;;;;;;6.60;6.10;;;;;;;18.54;100.00;99304.48;104985;1254;60597;-63
2023/06/18 01:14:57;;;;;;;5.80;5.40;;;;;;;18.52;100.00;99308.60;104797;1256;73817;-67
2023/06/18 01:17:29;;;;;;;4.80;4.40;;;;;;;18.50;100.00;99308.09;104958;1258;65618;-67
2023/06/18 01:20:08;;;;;;;7.40;4.90;;;;;;;18.46;100.00;99308.92;104760;1260;72629;-62
2023/06/18 01:22:39;;;;;;;7.00;5.00;;;;;;;18.41;100.00;99309.75;105181;1258;60562;-66
2023/06/18 01:25:07;;;;;;;6.20;5.20;;;;;;;18.35;100.00;99311.40;104973;1256;60677;-63
2023/06/18 01:27:41;;;;;;;5.70;5.30;;;;;;;18.30;100.00;99313.30;105261;1260;72623;-63
2023/06/18 01:30:09;;;;;;;4.60;4.30;;;;;;;18.26;100.00;99313.30;105438;1261;66387;-62
2023/06/18 01:32:38;;;;;;;4.40;4.10;;;;;;;18.24;100.00;99313.30;104962;1261;73087;-64
2023/06/18 01:35:06;;;;;;;5.30;4.80;;;;;;;18.22;100.00;99319.08;105270;1257;60709;-63
2023/06/18 01:38:08;;;;;;;5.00;3.80;;;;;;;18.23;100.00;99319.20;104863;1260;324474;-62
2023/06/18 01:41:18;;;;;;;3.90;3.60;;;;;;;18.24;100.00;99314.52;102339;1295;601454;-50
2023/06/18 01:43:48;;;;;;;6.00;4.50;;;;;;;18.22;100.00;99322.73;105436;1282;60072;-50
2023/06/18 01:46:17;;;;;;;4.70;3.50;;;;;;;18.23;100.00;99323.33;104589;1271;60061;-51
2023/06/18 01:48:47;;;;;;;4.90;4.60;;;;;;;18.25;100.00;99320.97;105137;1257;72096;-53
2023/06/18 01:51:16;;;;;;;6.90;4.10;;;;;;;18.27;100.00;99320.84;106202;1258;67627;-52
2023/06/18 01:53:43;;;;;;;5.70;5.30;;;;;;;18.29;100.00;99318.81;104956;1261;279922;-53
2023/06/18 01:56:13;;;;;;;5.60;4.30;;;;;;;18.31;100.00;99320.83;105218;1258;61646;-53
2023/06/18 01:58:41;;;;;;;4.80;4.40;;;;;;;18.29;100.00;99322.43;106778;1257;59821;-52
2023/06/18 02:01:11;;;;;;;3.70;3.50;;;;;;;18.26;100.00;99324.71;105537;1258;73711;-53
2023/06/18 02:03:39;;;;;;;4.80;4.30;;;;;;;18.23;100.00;99328.61;105819;1257;65621;-53
2023/06/18 02:06:07;;;;;;;5.30;4.20;;;;;;;18.21;100.00;99332.30;105078;1256;73636;-52
2023/06/18 02:08:34;;;;;;;7.10;4.30;;;;;;;18.19;100.00;99329.72;104988;1263;61696;-53
2023/06/18 02:11:02;;;;;;;4.10;3.80;;;;;;;18.19;100.00;99334.48;105054;1257;60121;-54
2023/06/18 02:13:29;;;;;;;4.80;4.50;;;;;;;18.18;100.00;99331.59;105126;1257;73045;-53
2023/06/18 02:15:57;;;;;;;3.70;3.50;;;;;;;18.19;100.00;99335.36;104980;1257;66404;-54
2023/06/18 02:18:30;;;;;;;4.40;4.20;;;;;;;18.19;100.00;99334.65;104987;1267;72616;-54
2023/06/18 02:20:58;;;;;;;4.30;4.00;;;;;;;18.18;100.00;99336.92;105187;1257;60526;-52
2023/06/18 02:23:27;;;;;;;4.40;4.10;;;;;;;18.17;100.00;99339.90;106013;1257;60040;-51
2023/06/18 02:25:57;;;;;;;4.00;3.80;;;;;;;18.17;100.00;99345.48;108888;1257;72169;-53
2023/06/18 02:28:24;;;;;;;4.30;3.50;;;;;;;18.19;100.00;99349.35;108884;1256;66991;-53
2023/06/18 02:30:51;;;;;;;4.80;4.60;;;;;;;18.21;100.00;99352.36;108872;1257;72687;-53
2023/06/18 02:33:19;;;;;;;5.10;3.40;;;;;;;18.25;100.00;99357.16;108825;1257;60655;-53
2023/06/18 02:35:46;;;;;;;3.90;3.70;;;;;;;18.27;100.00;99354.11;108891;1257;59990;-53
2023/06/18 02:38:14;;;;;;;6.10;4.10;;;;;;;18.26;100.00;99353.81;108843;1257;73077;-53
2023/06/18 02:40:43;;;;;;;3.90;3.70;;;;;;;18.26;100.00;99354.31;108975;1257;66619;-53
2023/06/18 02:43:11;;;;;;;5.60;4.90;;;;;;;18.30;100.00;99355.48;108792;1256;72643;-53
2023/06/18 02:45:38;;;;;;;6.30;3.40;;;;;;;18.32;100.00;99356.17;108878;1256;60792;-53
2023/06/18 02:48:05;;;;;;;3.80;3.40;;;;;;;18.33;100.00;99356.08;108875;1256;60076;-52
2023/06/18 02:50:35;;;;;;;4.00;3.80;;;;;;;18.35;100.00;99358.11;108914;1257;73454;-54
2023/06/18 02:53:03;;;;;;;6.10;3.90;;;;;;;18.38;100.00;99358.20;108837;1257;65972;-53
2023/06/18 02:55:31;;;;;;;4.30;4.00;;;;;;;18.40;100.00;99359.07;108935;1257;72725;-54
2023/06/18 02:57:59;;;;;;;4.00;3.80;;;;;;;18.40;100.00;99362.71;107958;1257;61778;-52
2023/06/18 03:00:26;;;;;;;5.00;4.20;;;;;;;18.42;100.00;99360.02;105272;1260;59823;-51
2023/06/18 03:02:54;;;;;;;4.40;3.90;;;;;;;18.46;100.00;99360.75;105190;1262;75813;-53
2023/06/18 03:05:25;;;;;;;5.90;4.20;;;;;;;18.49;100.00;99355.19;108844;1257;66155;-54
2023/06/18 03:07:52;;;;;;;4.30;3.90;;;;;;;18.52;100.00;99359.80;108809;1256;71486;-54
2023/06/18 03:10:20;;;;;;;3.20;3.00;;;;;;;18.56;100.00;99357.92;108800;1259;62204;-54
2023/06/18 03:12:50;;;;;;;3.30;3.10;;;;;;;18.58;100.00;99361.61;106078;1264;60562;-54
2023/06/18 03:15:25;;;;;;;3.80;3.60;;;;;;;18.61;100.00;99363.88;105218;1257;71750;-52
2023/06/18 03:17:53;;;;;;;4.70;3.70;;;;;;;18.65;100.00;99365.61;105084;1258;66816;-52
2023/06/18 03:20:21;;;;;;;4.80;4.30;;;;;;;18.71;100.00;99368.58;105700;1257;72463;-52
2023/06/18 03:22:52;;;;;;;5.00;4.50;;;;;;;18.77;100.00;99368.41;105042;1263;60974;-51
2023/06/18 03:25:19;;;;;;;6.70;6.20;;;;;;;18.83;100.00;99368.95;105127;1257;60135;-53
2023/06/18 03:27:47;;;;;;;4.30;3.90;;;;;;;18.89;100.00;99372.79;105236;1263;71289;-52
2023/06/18 03:30:14;;;;;;;5.20;4.90;;;;;;;18.96;100.00;99378.22;105082;1259;66863;-52
2023/06/18 03:32:42;;;;;;;3.70;3.30;;;;;;;19.01;100.00;99378.79;105177;1257;72644;-51
2023/06/18 03:35:10;;;;;;;4.80;3.80;;;;;;;19.05;100.00;99381.91;105301;1254;60487;-51
2023/06/18 03:37:38;;;;;;;5.30;4.70;;;;;;;19.09;100.00;99379.95;105216;1260;59647;-53
2023/06/18 03:40:07;;;;;;;6.40;4.40;;;;;;;19.12;100.00;99383.62;105247;1260;73820;-53
2023/06/18 03:42:34;;;;;;;5.40;4.40;;;;;;;19.16;100.00;99388.55;105662;1257;66981;-53
2023/06/18 03:45:05;;;;;;;4.40;4.00;;;;;;;19.19;100.00;99389.01;105215;1258;72910;-52
2023/06/18 03:47:32;;;;;;;4.30;4.10;;;;;;;19.22;100.00;99391.95;105813;1257;61781;-53
2023/06/18 03:50:00;;;;;;;3.90;3.60;;;;;;;19.28;100.00;99394.41;105223;1263;59660;-51
2023/06/18 03:52:29;;;;;;;5.10;4.70;;;;;;;19.32;100.00;99392.96;105003;1260;72275;-55
2023/06/18 03:54:56;;;;;;;5.00;4.60;;;;;;;19.35;100.00;99395.36;105117;1257;67043;-51
2023/06/18 03:57:24;;;;;;;5.20;4.90;;;;;;;19.39;100.00;99393.42;105382;1254;72723;-52
2023/06/18 03:59:51;;;;;;;4.40;4.10;;;;;;;19.42;100.00;99395.89;107559;1254;61675;-53
2023/06/18 04:02:19;;;;;;;3.80;3.50;;;;;;;19.45;100.00;99393.59;105447;1259;59965;-54
2023/06/18 04:04:46;;;;;;;5.30;3.70;;;;;;;19.49;100.00;99403.63;105378;1254;72935;-50
2023/06/18 04:07:14;;;;;;;4.20;3.90;;;;;;;19.52;100.00;99407.49;105345;1260;66454;-53
2023/06/18 04:09:41;;;;;;;5.00;3.70;;;;;;;19.56;100.00;99405.55;105355;1260;72671;-51
2023/06/18 04:12:08;;;;;;;4.80;4.40;;;;;;;19.60;100.00;99405.48;105449;1254;61746;-51
2023/06/18 04:14:36;;;;;;;4.20;4.00;;;;;;;19.67;100.00;99409.28;105333;1260;60440;-54
2023/06/18 04:17:04;;;;;;;4.60;4.20;;;;;;;19.73;100.00;99411.29;105653;1260;74430;-52
2023/06/18 04:19:32;;;;;;;4.10;3.90;;;;;;;19.80;100.00;99411.74;105546;1257;66830;-52
2023/06/18 04:21:59;;;;;;;4.30;4.00;;;;;;;19.85;100.00;99417.04;105359;1257;72497;-52
2023/06/18 04:24:27;;;;;;;3.60;3.40;;;;;;;19.92;100.00;99416.02;105304;1253;61648;-53
2023/06/18 04:26:54;;;;;;;5.80;5.00;;;;;;;19.99;100.00;99421.55;105595;1257;60025;-51
2023/06/18 04:29:22;;;;;;;6.00;5.50;;;;;;;20.08;100.00;99420.79;105499;1254;71822;-51
2023/06/18 04:31:50;;;;;;;3.60;3.40;;;;;;;20.17;100.00;99424.33;105326;1254;65987;-50
2023/06/18 04:34:17;;;;;;;5.80;4.20;;;;;;;20.26;100.00;99429.39;105246;1257;71437;-51
2023/06/18 04:36:45;;;;;;;3.30;3.10;;;;;;;20.36;100.00;99429.75;105344;1254;60467;-52
2023/06/18 04:39:12;;;;;;;5.10;3.70;;;;;;;20.49;100.00;99431.36;105336;1257;60397;-52
2023/06/18 04:41:40;;;;;;;3.10;2.80;;;;;;;20.64;100.00;99430.92;105126;1260;72381;-53
2023/06/18 04:44:10;;;;;;;3.70;3.40;;;;;;;20.80;100.00;99436.71;105287;1254;65653;-52
2023/06/18 04:46:40;;;;;;;8.70;4.50;;;;;;;20.97;100.00;99441.64;105752;1259;71787;-52
2023/06/18 04:49:07;;;;;;;4.20;3.20;;;;;;;21.11;100.00;99450.14;105251;1260;59698;-53
2023/06/18 04:51:35;;;;;;;2.70;2.50;;;;;;;21.26;100.00;99454.24;105065;1260;59741;-51
2023/06/18 04:54:03;;;;;;;3.60;3.00;;;;;;;21.40;100.00;99454.77;105224;1260;72967;-52
2023/06/18 04:56:30;;;;;;;2.50;2.30;;;;;;;21.54;100.00;99459.13;105138;1254;66902;-50
2023/06/18 04:58:58;;;;;;;3.00;2.70;;;;;;;21.65;100.00;99465.68;105222;1260;72893;-53
2023/06/18 05:01:26;;;;;;;3.60;2.90;;;;;;;21.76;100.00;99470.65;105233;1260;60341;-53
2023/06/18 05:03:53;;;;;;;3.00;2.80;;;;;;;21.86;100.00;99473.23;104815;1259;59733;-52
2023/06/18 05:06:21;;;;;;;3.10;2.90;;;;;;;21.96;100.00;99476.30;104871;1254;71518;-51
2023/06/18 05:08:50;;;;;;;4.70;2.70;;;;;;;22.06;100.00;99484.63;105186;1257;66977;-52
2023/06/18 05:11:18;;;;;;;4.70;3.00;;;;;;;22.16;100.00;99487.23;105191;1259;72649;-53
2023/06/18 05:13:46;;;;;;;4.30;3.90;;;;;;;22.26;100.00;99485.16;105231;1260;60051;-52
2023/06/18 05:16:13;;;;;;;3.20;2.60;;;;;;;22.35;100.00;99486.46;105113;1254;59967;-52
2023/06/18 05:18:41;;;;;;;2.80;2.60;;;;;;;22.42;100.00;99493.25;108916;1254;73103;-52
2023/06/18 05:21:12;;;;;;;3.00;2.70;;;;;;;22.48;100.00;99494.45;108962;1254;66840;-53
2023/06/18 05:23:39;;;;;;;5.80;2.70;;;;;;;22.54;100.00;99497.62;108981;1254;72365;-53
2023/06/18 05:26:07;;;;;;;4.20;2.40;;;;;;;22.61;100.00;99499.67;109002;1256;60066;-52
2023/06/18 05:28:34;;;;;;;3.40;2.50;;;;;;;22.69;100.00;99502.34;106664;1256;60127;-53
2023/06/18 05:31:02;;;;;;;2.80;2.60;;;;;;;22.79;100.00;99509.73;105218;1256;71115;-53
2023/06/18 05:33:30;;;;;;;4.00;2.30;;;;;;;22.89;100.00;99511.58;109059;1254;67075;-54
2023/06/18 05:35:58;;;;;;;3.90;2.60;;;;;;;22.98;100.00;99516.01;108964;1256;71400;-51
2023/06/18 05:38:26;;;;;;;6.00;2.40;;;;;;;23.06;100.00;99515.58;108884;1254;60124;-51
2023/06/18 05:40:53;;;;;;;3.40;2.40;;;;;;;23.11;100.00;99516.29;108989;1256;59951;-51
2023/06/18 05:43:23;;;;;;;2.60;2.30;;;;;;;23.18;100.00;99519.25;108959;1256;73030;-52
2023/06/18 05:45:52;;;;;;;2.00;1.90;;;;;;;23.23;100.00;99526.13;108814;1254;65798;-51
2023/06/18 05:48:19;;;;;;;3.50;2.10;;;;;;;23.30;100.00;99527.62;109066;1254;72635;-51
2023/06/18 05:51:02;;;;;;;2.70;2.50;;;;;;;23.37;100.00;99529.67;107075;1254;60469;-53
2023/06/18 05:53:30;;;;;;;7.30;2.80;;;;;;;23.44;100.00;99534.48;105275;1260;60572;-52
2023/06/18 05:55:57;;;;;;;3.60;2.10;;;;;;;23.49;100.00;99534.27;105189;1261;73905;-54
2023/06/18 05:58:25;;;;;;;2.40;2.20;;;;;;;23.55;100.00;99537.92;105063;1259;66797;-53
2023/06/18 06:00:53;;;;;;;3.10;2.90;;;;;;;23.59;100.00;99536.37;108681;1257;71150;-52
2023/06/18 06:03:20;;;;;;;6.10;2.70;;;;;;;23.65;100.00;99535.73;108813;1260;58900;-51
2023/06/18 06:05:47;;;;;;;2.60;2.40;;;;;;;23.71;100.00;99535.98;109024;1254;59248;-50
2023/06/18 06:08:15;;;;;;;2.70;2.50;;;;;;;23.76;100.00;99537.29;108058;1254;73837;-52
2023/06/18 06:10:47;;;;;;;3.10;2.60;;;;;;;23.81;100.00;99539.46;106901;1254;66210;-51
2023/06/18 06:13:15;;;;;;;3.20;3.00;;;;;;;23.86;100.00;99546.09;105561;1259;71436;-53
2023/06/18 06:15:42;;;;;;;4.90;3.50;;;;;;;23.91;100.00;99548.27;105450;1259;60462;-53
2023/06/18 06:18:10;;;;;;;5.60;2.20;;;;;;;23.96;100.00;99545.90;105109;1259;60463;-54
2023/06/18 06:20:37;;;;;;;3.40;3.20;;;;;;;24.02;100.00;99550.42;105097;1261;73998;-53
2023/06/18 06:23:05;;;;;;;2.50;2.10;;;;;;;24.08;100.00;99546.23;106113;1256;67314;-54
2023/06/18 06:25:33;;;;;;;4.10;2.80;;;;;;;24.16;100.00;99555.48;105168;1257;71376;-53
2023/06/18 06:28:00;;;;;;;3.70;3.40;;;;;;;24.23;100.00;99555.58;105081;1260;60006;-53
2023/06/18 06:30:28;;;;;;;3.00;2.70;;;;;;;24.30;100.00;99562.85;105051;1260;60488;-54
2023/06/18 06:33:00;;;;;;;2.90;2.70;;;;;;;24.37;100.00;99565.02;105251;1259;73898;-53
2023/06/18 06:35:28;;;;;;;2.10;2.00;;;;;;;24.43;100.00;99568.33;105118;1259;67016;-54
2023/06/18 06:37:56;;;;;;;3.50;2.50;;;;;;;24.50;100.00;99569.91;105982;1254;72764;-52
2023/06/18 06:40:23;;;;;;;2.90;2.70;;;;;;;24.57;100.00;99568.70;105001;1260;60460;-52
2023/06/18 06:42:52;;;;;;;2.80;2.20;;;;;;;24.64;100.00;99568.58;106417;1254;60578;-53
2023/06/18 06:45:28;;;;;;;3.00;2.70;;;;;;;24.75;100.00;99567.23;105175;1258;73247;-54
2023/06/18 06:48:04;;;;;;;2.70;2.50;;;;;;;24.86;100.00;99567.08;104822;1256;67249;-54
2023/06/18 06:50:52;;;;;;;3.20;2.90;;;;;;;24.98;100.00;99573.14;104730;1256;72711;-53
2023/06/18 06:53:23;;;;;;;3.50;2.70;;;;;;;25.06;100.00;99572.98;105342;1254;62207;-51
2023/06/18 06:55:51;;;;;;;3.60;3.30;;;;;;;25.13;100.00;99573.79;105190;1255;61001;-51
2023/06/18 06:58:21;;;;;;;5.40;3.00;;;;;;;25.21;100.00;99577.27;105168;1256;73502;-53
2023/06/18 07:00:48;;;;;;;3.60;3.30;;;;;;;25.28;100.00;99578.54;104759;1254;67445;-54
2023/06/18 07:03:16;;;;;;;4.30;4.00;;;;;;;25.34;100.00;99580.51;104883;1257;71467;-53
2023/06/18 07:05:43;;;;;;;3.70;3.40;;;;;;;25.39;100.00;99582.64;105464;1254;61055;-52
2023/06/18 07:08:13;;;;;;;5.40;3.60;;;;;;;25.45;100.00;99585.77;104732;1259;60756;-53
2023/06/18 07:10:41;;;;;;;3.30;3.10;;;;;;;25.50;100.00;99586.70;104659;1259;75552;-53
2023/06/18 07:13:08;;;;;;;4.80;3.40;;;;;;;25.54;100.00;99588.79;104977;1254;66760;-53
2023/06/18 07:15:35;;;;;;;2.40;2.20;;;;;;;25.56;100.00;99587.24;104926;1257;71450;-50
2023/06/18 07:18:03;;;;;;;3.90;2.30;;;;;;;25.57;100.00;99591.39;104648;1256;61298;-54
2023/06/18 07:20:30;;;;;;;4.50;3.90;;;;;;;25.59;100.00;99586.46;104486;1256;60560;-53
2023/06/18 07:22:57;;;;;;;4.30;2.70;;;;;;;25.61;100.00;99588.89;104521;1254;74291;-54
2023/06/18 07:25:25;;;;;;;2.30;2.20;;;;;;;25.64;100.00;99586.65;105123;1259;65865;-54
2023/06/18 07:27:52;;;;;;;2.10;1.90;;;;;;;25.69;100.00;99586.86;105216;1259;72786;-53
2023/06/18 07:30:20;;;;;;;2.80;2.70;;;;;;;25.75;100.00;99591.08;105167;1259;60562;-53
2023/06/18 07:32:48;;;;;;;2.90;2.10;;;;;;;25.82;100.00;99593.03;105223;1257;60556;-53
2023/06/18 07:35:15;;;;;;;2.50;2.40;;;;;;;25.88;100.00;99592.67;105211;1254;74779;-54
2023/06/18 07:37:43;;;;;;;3.20;2.10;;;;;;;25.93;100.00;99592.50;105166;1254;66895;-55
2023/06/18 07:40:11;;;;;;;2.60;2.30;;;;;;;25.99;100.00;99594.48;106077;1257;73131;-53
2023/06/18 07:42:38;;;;;;;4.20;1.80;;;;;;;26.06;100.00;99592.96;105108;1255;59315;-55
2023/06/18 07:45:06;;;;;;;2.80;2.40;;;;;;;26.12;100.00;99591.61;105160;1259;60575;-55
2023/06/18 07:47:33;;;;;;;2.10;1.90;;;;;;;26.16;100.00;99592.78;104970;1259;73924;-51
2023/06/18 07:50:01;;;;;;;2.20;2.00;;;;;;;26.23;100.00;99589.92;104904;1254;67161;-54
2023/06/18 07:52:32;;;;;;;2.10;2.00;;;;;;;26.32;100.00;99591.78;105332;1254;75022;-52
2023/06/18 07:55:00;;;;;;;2.20;2.00;;;;;;;26.40;100.00;99591.52;105212;1257;60556;-52
2023/06/18 07:57:27;;;;;;;2.20;1.80;;;;;;;26.42;100.00;99591.60;105375;1255;60562;-53
2023/06/18 07:59:55;;;;;;;2.20;1.40;;;;;;;26.46;100.00;99594.59;105401;1259;75199;-54
2023/06/18 08:02:23;;;;;;;5.60;1.30;;;;;;;26.54;100.00;99595.62;105227;1254;65952;-54
2023/06/18 08:04:51;;;;;;;3.00;1.60;;;;;;;26.65;100.00;99595.46;105331;1259;71639;-53
2023/06/18 08:07:18;;;;;;;1.40;1.30;;;;;;;26.77;100.00;99597.58;105266;1255;60518;-54
2023/06/18 08:09:45;;;;;;;1.40;1.30;;;;;;;26.86;100.00;99599.25;105257;1259;60463;-52
2023/06/18 08:12:13;;;;;;;2.90;1.30;;;;;;;26.94;100.00;99601.20;105238;1259;72994;-56
2023/06/18 08:14:43;;;;;;;1.60;1.30;;;;;;;27.02;100.00;99604.11;105335;1254;67435;-54
2023/06/18 08:17:12;;;;;;;5.50;1.20;;;;;;;27.08;100.00;99610.08;105059;1256;71378;-53
2023/06/18 08:19:44;;;;;;;1.90;1.50;;;;;;;27.06;100.00;99608.09;105338;1254;60531;-54
2023/06/18 08:22:12;;;;;;;2.60;1.50;;;;;;;27.05;100.00;99603.09;105303;1254;61343;-54
2023/06/18 08:24:39;;;;;;;2.10;1.50;;;;;;;27.04;100.00;99600.60;105314;1254;73517;-54
2023/06/18 08:27:11;;;;;;;2.30;1.20;;;;;;;27.07;100.00;99599.52;105180;1259;66902;-52
2023/06/18 08:29:39;;;;;;;1.50;1.40;;;;;;;27.12;100.00;99597.20;108908;1254;72861;-54
2023/06/18 08:32:07;;;;;;;1.70;1.20;;;;;;;27.18;100.00;99596.30;108773;1254;60093;-54
2023/06/18 08:34:36;;;;;;;1.40;1.20;;;;;;;27.26;100.00;99596.66;108999;1254;59080;-54
2023/06/18 08:37:04;;;;;;;3.70;1.50;;;;;;;27.29;100.00;99599.58;108906;1254;74575;-55
2023/06/18 08:39:32;;;;;;;6.00;1.10;;;;;;;27.31;100.00;99599.71;108951;1254;67341;-53
2023/06/18 08:42:00;;;;;;;1.70;1.10;;;;;;;27.37;100.00;99594.95;108921;1256;73016;-54
2023/06/18 08:44:29;;;;;;;4.80;1.10;;;;;;;27.43;100.00;99600.63;108724;1254;60098;-53
2023/06/18 08:46:57;;;;;;;1.20;1.10;;;;;;;27.45;100.00;99598.51;108979;1254;59436;-53
2023/06/18 08:49:26;;;;;;;4.00;1.20;;;;;;;27.44;100.00;99596.65;108924;1254;73892;-52
2023/06/18 08:51:53;;;;;;;0.90;0.90;;;;;;;27.47;100.00;99597.59;108961;1256;67086;-52
2023/06/18 08:54:22;;;;;;;1.10;1.00;;;;;;;27.49;100.00;99596.73;108915;1254;73143;-53
2023/06/18 08:56:50;;;;;;;1.50;1.30;;;;;;;27.54;100.00;99593.44;108712;1254;59488;-53
2023/06/18 08:59:18;;;;;;;2.50;1.20;;;;;;;27.56;100.00;99586.16;105547;1254;60696;-52
2023/06/18 09:01:46;;;;;;;2.50;1.20;;;;;;;27.55;100.00;99580.43;106337;1256;73247;-54
2023/06/18 09:04:14;;;;;;;1.40;1.00;;;;;;;27.59;100.00;99583.10;105199;1256;67599;-55
2023/06/18 09:06:42;;;;;;;1.50;1.10;;;;;;;27.68;100.00;99574.63;105019;1255;74428;-51
2023/06/18 09:09:12;;;;;;;1.30;0.80;;;;;;;27.78;100.00;99578.88;106592;1255;60437;-54
2023/06/18 09:11:39;;;;;;;1.30;1.00;;;;;;;27.86;100.00;99576.79;105538;1259;60397;-54
2023/06/18 09:14:06;;;;;;;1.10;0.80;;;;;;;27.92;100.00;99575.73;105127;1254;72638;-55
2023/06/18 09:16:34;;;;;;;1.40;1.10;;;;;;;27.95;100.00;99573.48;105071;1257;67024;-53
2023/06/18 09:19:01;;;;;;;2.50;1.10;;;;;;;27.97;100.00;99574.30;105685;1255;72702;-55
2023/06/18 09:21:42;;;;;;;2.10;1.20;;;;;;;28.00;100.00;99579.04;105247;1256;61402;-54
2023/06/18 09:24:21;;;;;;;3.60;1.20;;;;;;;28.00;100.00;99572.06;105917;1254;62625;-53
2023/06/18 09:27:00;;;;;;;2.50;1.20;;;;;;;27.99;100.00;99569.70;105459;1254;74454;-54
2023/06/18 09:29:29;;;;;;;1.90;1.10;;;;;;;27.97;100.00;99566.55;105014;1260;66115;-55
2023/06/18 09:31:58;;;;;;;1.70;1.10;;;;;;;27.96;100.00;99556.98;105478;1254;72705;-55
2023/06/18 09:34:26;;;;;;;1.10;1.00;;;;;;;28.00;100.00;99552.61;105712;1254;62190;-53
2023/06/18 09:36:53;;;;;;;1.30;1.10;;;;;;;28.07;100.00;99552.42;105116;1261;60378;-54
2023/06/18 09:39:22;;;;;;;1.40;1.00;;;;;;;28.14;100.00;99546.36;105221;1254;74764;-53
2023/06/18 09:41:51;;;;;;;1.10;1.00;;;;;;;28.22;100.00;99544.97;106020;1254;66716;-52
2023/06/18 09:44:19;;;;;;;2.10;1.00;;;;;;;28.31;100.00;99543.97;105883;1254;73126;-53
2023/06/18 09:46:56;;;;;;;2.10;1.00;;;;;;;28.35;100.00;99545.35;105800;1254;61814;-54
2023/06/18 09:49:25;;;;;;;1.60;1.20;;;;;;;28.42;100.00;99539.85;105248;1254;60459;-53
2023/06/18 09:51:53;;;;;;;1.20;1.10;;;;;;;28.48;100.00;99543.35;105557;1254;73910;-54
2023/06/18 09:54:21;;;;;;;1.30;0.90;;;;;;;28.57;100.00;99539.48;104961;1254;68318;-54
2023/06/18 09:57:02;;;;;;;1.40;1.30;;;;;;;28.65;100.00;99535.03;105201;1254;72658;-53
2023/06/18 09:59:29;;;;;;;1.80;1.30;;;;;;;28.75;100.00;99535.12;106057;1258;60508;-51
2023/06/18 10:01:56;;;;;;;3.50;1.30;;;;;;;28.84;100.00;99533.41;105261;1256;60495;-54
2023/06/18 10:04:25;;;;;;;1.80;1.10;;;;;;;28.91;100.00;99530.55;105296;1254;75908;-52
2023/06/18 10:06:58;;;;;;;2.90;1.20;;;;;;;28.89;100.00;99529.21;105440;1258;64962;-53
2023/06/18 10:09:33;;;;;;;1.30;1.20;;;;;;;28.83;100.00;99525.39;105371;1257;71404;-52
2023/06/18 10:12:01;;;;;;;1.50;1.40;;;;;;;28.79;100.00;99527.63;105424;1254;60563;-53
2023/06/18 10:14:30;;;;;;;1.00;0.90;;;;;;;28.80;100.00;99519.95;105544;1258;60440;-53
2023/06/18 10:17:12;;;;;;;1.40;1.20;;;;;;;28.78;100.00;99514.59;105538;1256;74071;-52
2023/06/18 10:19:46;;;;;;;2.60;1.00;;;;;;;28.73;100.00;99510.88;105513;1258;66403;-55
2023/06/18 10:22:14;;;;;;;1.00;1.00;;;;;;;28.72;100.00;99505.29;105320;1258;70611;-53
2023/06/18 10:24:55;;;;;;;1.20;1.10;;;;;;;28.75;100.00;99500.08;105348;1256;60552;-53
2023/06/18 10:27:22;;;;;;;1.50;1.10;;;;;;;28.83;100.00;99495.72;105382;1256;60434;-52
2023/06/18 10:29:50;;;;;;;1.40;1.30;;;;;;;28.90;100.00;99491.58;105451;1255;73941;-52
2023/06/18 10:32:17;;;;;;;1.70;1.20;;;;;;;28.98;100.00;99493.44;105502;1259;68675;-53
2023/06/18 10:34:45;;;;;;;1.10;1.00;;;;;;;29.05;100.00;99489.12;105385;1254;70995;-52
2023/06/18 10:37:12;;;;;;;1.20;1.10;;;;;;;29.12;100.00;99486.24;106823;1254;60436;-52
2023/06/18 10:39:39;;;;;;;1.20;1.10;;;;;;;29.16;100.00;99476.52;105061;1254;60016;-54
2023/06/18 10:42:14;;;;;;;1.00;0.90;;;;;;;29.18;100.00;99476.40;105334;1254;72699;-51
2023/06/18 10:44:57;;;;;;;1.20;0.90;;;;;;;29.19;100.00;99475.82;105617;1258;66856;-54
2023/06/18 10:47:26;;;;;;;1.50;1.40;;;;;;;29.23;100.00;99466.35;105415;1259;73239;-52
2023/06/18 10:50:02;;;;;;;1.70;1.20;;;;;;;29.25;100.00;99468.36;105930;1254;60539;-53
2023/06/18 10:52:31;;;;;;;1.80;1.20;;;;;;;29.27;100.00;99470.55;105450;1259;60379;-52
2023/06/18 10:55:25;;;;;;;3.00;1.10;;;;;;;29.29;100.00;99468.65;105442;1257;73756;-55
2023/06/18 10:58:04;;;;;;;1.10;1.00;;;;;;;29.29;100.00;99465.25;105300;1254;67617;-53
2023/06/18 11:00:34;;;;;;;1.90;1.10;;;;;;;29.28;100.00;99461.69;109101;1254;71189;-52
2023/06/18 11:03:05;;;;;;;4.10;1.00;;;;;;;29.36;100.00;99464.85;109088;1253;59856;-53
2023/06/18 11:05:32;;;;;;;1.80;1.10;;;;;;;29.43;100.00;99461.59;109131;1254;59354;-54
2023/06/18 11:08:01;;;;;;;1.90;1.10;;;;;;;29.47;100.00;99458.55;107408;1254;74345;-54
2023/06/18 11:10:35;;;;;;;1.30;1.20;;;;;;;29.49;100.00;99456.43;106183;1256;66691;-53
2023/06/18 11:13:06;;;;;;;1.60;1.40;;;;;;;29.46;100.00;99455.16;109119;1254;71473;-54
2023/06/18 11:15:34;;;;;;;2.50;1.20;;;;;;;29.39;100.00;99453.80;109127;1254;58864;-53
2023/06/18 11:18:02;;;;;;;1.50;1.40;;;;;;;29.37;100.00;99453.56;109175;1254;59086;-54
2023/06/18 11:20:31;;;;;;;2.30;1.00;;;;;;;29.34;100.00;99452.37;108574;1254;72589;-56
2023/06/18 11:23:00;;;;;;;1.40;1.10;;;;;;;29.34;100.00;99447.69;105297;1258;66815;-56
2023/06/18 11:25:28;;;;;;;1.10;1.00;;;;;;;29.34;100.00;99445.08;109040;1254;73135;-55